Portada
METAR-TAF:

METAR-TAF

Aeroports :

Foz do Iguaçu, Paranà, Brasil

latitud: 25-31S, longitud: 054-35W, altitud: 180 m

Observació

L'informe es va fer fa 9 minuts, a les 10:00 UTC
Vent 2 kt del Sud/Sud-Oest
Temperatura 10°C
Humitat 93%
Pressió 1020 hPa
Visibilitat 10 km o més
sense núvols per sota de 1500 mi sense presència de cumulonimbus.

METAR: SBFI 201000Z 20002KT CAVOK 10/09 Q1020

Hora: 07:09 (10:09 UTC)

Pronòstic

L'informe es va fer fa 7 hores i 9 minuts, a les 03:00 UTC
Pronòstic vàlid del 20 a les 06 UTC al 21 a les 06 UTC
Vent 8 kt del Sud
Visibilitat 10 km o més
sense núvols per sota de 1500 mi sense presència de cumulonimbus.

TAF: SBFI 200300Z 2006/2106 18008KT CAVOK TN16/2009Z TX22/2017Z RMK PER

Observacions i pronòstics meteorològics de més de 4000 aeroports (METAR i TAF).

Les estacions disponibles són els punts grocs i vermells al mapa.

Posi el ratolí al punt desitjat per veure el nom de l'estació.

Feu clic per veure les observacions i els pronòstics meteorològics.

Per canviar el mapa: feu clic els botons verds amb una creu de color negre per apropar; al botó verd amb un guió per allunyar la imatge; o en les fletxes verdes per a mapes adjacents.


METAR-TAF: